Main page
METAR-TAF:

METAR-TAF

Airports :

Bologna, Italy

Bologna Guglielmo Marconi Airport

latitude: 44-32N, longitude: 011-18E, elevation: 36 m

Current weather observation

The report was made 40 minutes ago, at 13:50 UTC
Wind 9 kt from the East, varying between Northeast and East/Southeast
Temperature 29°C
Humidity 37%
Pressure 1020 hPa
Visibility 10 km or more
no clouds below 1500 m and no cumulonimbus

METAR: LIPE 281350Z 08009KT 050V120 CAVOK 29/13 Q1020

Time: 16:30 (14:30 UTC)

Forecast

The report was made 3 hours and 30 minutes ago, at 11:00 UTC
Forecast valid from 28 at 12 UTC to 29 at 12 UTC
Wind 10 kt from the East
Visibility 10 km or more
Few clouds at a height of 3000 ft
Becoming
from 28 at 15 UTC to 28 at 18 UTC
Wind 5 kt from variable directions

TAF: LIPE 281100Z 2812/2912 09010KT 9999 FEW030 BECMG 2815/2818 VRB05KT

Weather observations and forecasts of more than 4000 airports (METAR and TAF reports).

The available stations are represented by yellow and red dots on the map.

Hover mouse over dot to see the name of the station.

Then click to see weather observations and forecasts.

To change the map : click on the green buttons with a black cross to zoom in, on the green button with a dash to zoom out, or on the green arrows for adjacent maps.


METAR-TAF: